createdAt,value
2022-08-26T00:01:56.797Z,14.32
2022-08-26T00:04:25.779Z,14.75
2022-08-26T00:06:57.238Z,15.60
2022-08-26T00:09:25.383Z,14.63
2022-08-26T00:11:54.407Z,13.52
2022-08-26T00:14:27.017Z,13.95
2022-08-26T00:16:57.007Z,14.68
2022-08-26T00:19:25.172Z,14.68
2022-08-26T00:21:53.488Z,14.45
2022-08-26T00:24:21.880Z,14.80
2022-08-26T00:26:50.081Z,14.40
2022-08-26T00:29:19.531Z,13.93
2022-08-26T00:31:48.780Z,14.60
2022-08-26T00:34:19.294Z,14.02
2022-08-26T00:36:47.493Z,14.02
2022-08-26T00:39:16.807Z,14.45
2022-08-26T00:41:44.149Z,15.02
2022-08-26T00:44:12.251Z,15.88
2022-08-26T00:46:46.372Z,14.40
2022-08-26T00:49:24.658Z,15.18
2022-08-26T00:51:55.311Z,14.65
2022-08-26T00:54:27.404Z,14.40
2022-08-26T00:57:02.631Z,14.98
2022-08-26T00:59:33.263Z,15.10
2022-08-26T01:02:02.697Z,14.73
2022-08-26T01:04:33.608Z,14.60
2022-08-26T01:07:01.601Z,15.77
2022-08-26T01:09:30.967Z,14.98
2022-08-26T01:12:01.340Z,14.57
2022-08-26T01:14:32.850Z,14.40
2022-08-26T01:17:05.024Z,15.02
2022-08-26T01:19:40.626Z,14.82
2022-08-26T01:22:26.618Z,14.07
2022-08-26T01:24:56.930Z,14.23
2022-08-26T01:27:27.441Z,14.13
2022-08-26T01:30:01.854Z,14.93
2022-08-26T01:32:33.105Z,15.02
2022-08-26T01:35:01.570Z,15.13
2022-08-26T01:37:34.976Z,13.43
2022-08-26T01:40:04.314Z,13.52
2022-08-26T01:42:31.783Z,14.43
2022-08-26T01:45:07.213Z,13.65
2022-08-26T01:47:36.581Z,14.90
2022-08-26T01:50:11.159Z,14.45
2022-08-26T01:52:42.714Z,14.48
2022-08-26T01:55:13.668Z,14.75
2022-08-26T01:57:57.493Z,15.10
2022-08-26T02:00:26.668Z,14.40
2022-08-26T02:03:16.491Z,15.13
2022-08-26T02:06:00.010Z,15.10
2022-08-26T02:08:42.133Z,13.82
2022-08-26T02:13:55.635Z,14.52
2022-08-26T02:16:26.200Z,13.48
2022-08-26T02:18:55.313Z,13.82
2022-08-26T02:21:24.941Z,14.75
2022-08-26T02:23:53.086Z,14.32
2022-08-26T02:26:27.098Z,14.07
2022-08-26T02:29:02.685Z,13.07
2022-08-26T02:31:30.133Z,13.80
2022-08-26T02:34:08.459Z,15.13
2022-08-26T02:36:38.183Z,14.02
2022-08-26T02:39:07.344Z,13.98
2022-08-26T02:41:35.042Z,14.50
2022-08-26T02:44:11.734Z,14.57
2022-08-26T02:46:39.852Z,14.38
2022-08-26T02:49:07.578Z,14.20
2022-08-26T02:51:34.843Z,14.40
2022-08-26T02:54:02.320Z,14.85
2022-08-26T02:56:29.639Z,14.25
2022-08-26T02:58:57.158Z,14.40
2022-08-26T03:01:32.492Z,14.30
2022-08-26T03:04:02.139Z,13.50
2022-08-26T03:06:29.958Z,14.07
2022-08-26T03:08:57.249Z,14.07
2022-08-26T03:11:29.629Z,13.98
2022-08-26T03:14:00.714Z,14.88
2022-08-26T03:16:37.748Z,14.73
2022-08-26T03:19:07.772Z,14.32
2022-08-26T03:21:36.965Z,14.50
2022-08-26T03:24:05.566Z,15.23
2022-08-26T03:26:32.858Z,14.20
2022-08-26T03:29:19.046Z,15.02
2022-08-26T03:31:46.989Z,14.00
2022-08-26T03:34:15.048Z,15.30
2022-08-26T03:36:42.530Z,15.27
2022-08-26T03:39:11.281Z,14.48
2022-08-26T03:41:38.867Z,15.75
2022-08-26T03:44:08.941Z,15.30
2022-08-26T03:46:37.280Z,15.43
2022-08-26T03:49:06.164Z,15.18
2022-08-26T03:51:34.928Z,15.50
2022-08-26T03:54:08.374Z,15.15
2022-08-26T03:56:36.760Z,15.77
2022-08-26T03:59:05.116Z,14.13
2022-08-26T04:01:35.386Z,16.15
2022-08-26T04:04:03.336Z,15.30
2022-08-26T04:06:43.092Z,15.23
2022-08-26T04:09:19.480Z,16.60
2022-08-26T04:11:50.545Z,14.95
2022-08-26T04:14:21.885Z,15.80
2022-08-26T04:16:50.158Z,14.45
2022-08-26T04:19:19.301Z,15.07
2022-08-26T04:21:49.117Z,15.00
2022-08-26T04:24:17.636Z,15.30
2022-08-26T04:26:45.283Z,16.25
2022-08-26T04:29:16.123Z,15.35
2022-08-26T04:31:44.229Z,15.65
2022-08-26T04:34:11.957Z,15.40
2022-08-26T04:36:41.979Z,16.48
2022-08-26T04:39:12.446Z,15.20
2022-08-26T04:41:40.144Z,16.40
2022-08-26T04:44:07.895Z,15.18
2022-08-26T04:46:35.798Z,15.73
2022-08-26T04:51:36.676Z,14.63
2022-08-26T04:54:07.114Z,15.40
2022-08-26T04:56:37.621Z,15.07
2022-08-26T04:59:08.120Z,14.48
2022-08-26T05:01:46.715Z,14.35
2022-08-26T05:04:18.783Z,15.83
2022-08-26T05:06:47.799Z,14.60
2022-08-26T05:09:15.427Z,14.43
2022-08-26T05:11:42.947Z,14.80
2022-08-26T05:14:10.348Z,14.70
2022-08-26T05:16:40.432Z,14.15
2022-08-26T05:19:08.536Z,16.85
2022-08-26T05:21:36.698Z,15.90
2022-08-26T05:24:04.809Z,14.98
2022-08-26T05:26:32.961Z,14.70
2022-08-26T05:29:01.567Z,14.30
2022-08-26T05:31:31.975Z,14.57
2022-08-26T05:34:03.651Z,14.55
2022-08-26T05:36:34.872Z,13.27
2022-08-26T05:39:04.362Z,15.95
2022-08-26T05:41:36.631Z,15.10
2022-08-26T05:44:09.421Z,13.73
2022-08-26T05:46:37.952Z,16.15
2022-08-26T05:49:06.166Z,15.55
2022-08-26T05:51:46.602Z,15.45
2022-08-26T05:54:21.986Z,14.93
2022-08-26T05:56:52.645Z,14.63
2022-08-26T05:59:24.162Z,16.42
2022-08-26T06:01:52.965Z,14.10
2022-08-26T06:04:20.386Z,16.48
2022-08-26T06:06:47.934Z,16.40
2022-08-26T06:09:18.195Z,15.65
2022-08-26T06:11:45.632Z,15.82
2022-08-26T06:14:12.994Z,16.85
2022-08-26T06:16:44.442Z,15.65
2022-08-26T06:19:15.674Z,15.93
2022-08-26T06:21:46.572Z,17.23
2022-08-26T06:24:33.757Z,16.73
2022-08-26T06:27:04.374Z,15.85
2022-08-26T06:29:34.620Z,17.13
2022-08-26T06:34:31.232Z,16.98
2022-08-26T06:37:02.787Z,15.70
2022-08-26T06:39:32.118Z,15.82
2022-08-26T06:42:00.421Z,16.73
2022-08-26T06:44:28.130Z,16.20
2022-08-26T06:46:55.702Z,16.60
2022-08-26T06:49:26.828Z,17.15
2022-08-26T06:51:58.515Z,14.43
2022-08-26T06:54:27.478Z,15.15
2022-08-26T06:56:57.040Z,16.25
2022-08-26T06:59:25.188Z,15.52
2022-08-26T07:01:53.312Z,16.33
2022-08-26T07:04:23.270Z,14.70
2022-08-26T07:06:53.580Z,14.48
2022-08-26T07:09:26.853Z,13.43
2022-08-26T07:11:56.458Z,15.68
2022-08-26T07:14:26.234Z,15.40
2022-08-26T07:16:53.894Z,14.07
2022-08-26T07:19:30.996Z,13.90
2022-08-26T07:22:04.842Z,14.00
2022-08-26T07:24:37.749Z,14.80
2022-08-26T07:27:08.801Z,15.18
2022-08-26T07:29:37.539Z,13.27
2022-08-26T07:32:05.428Z,14.75
2022-08-26T07:34:33.328Z,15.70
2022-08-26T07:37:01.388Z,15.73
2022-08-26T07:39:31.500Z,15.15
2022-08-26T07:42:01.468Z,15.30
2022-08-26T07:44:35.440Z,14.63
2022-08-26T07:47:02.817Z,15.23
2022-08-26T07:49:38.305Z,14.02
2022-08-26T07:52:06.726Z,14.05
2022-08-26T07:54:33.963Z,13.90
2022-08-26T07:57:01.725Z,14.10
2022-08-26T07:59:36.638Z,15.80
2022-08-26T08:02:03.941Z,15.60
2022-08-26T08:04:31.227Z,14.65
2022-08-26T08:06:58.600Z,13.68
2022-08-26T08:09:26.208Z,14.88
2022-08-26T08:11:54.808Z,14.43
2022-08-26T08:14:22.409Z,14.20
2022-08-26T08:16:51.208Z,14.15
2022-08-26T08:19:22.140Z,14.35
2022-08-26T08:21:49.368Z,14.77
2022-08-26T08:24:16.687Z,13.65
2022-08-26T08:26:44.028Z,13.75
2022-08-26T08:29:12.695Z,13.98
2022-08-26T08:31:57.962Z,13.63
2022-08-26T08:34:28.711Z,13.00
2022-08-26T08:36:57.485Z,13.20
2022-08-26T08:39:25.744Z,13.45
2022-08-26T08:42:13.917Z,12.73
2022-08-26T08:44:44.453Z,12.88
2022-08-26T08:47:35.592Z,12.38
2022-08-26T08:50:24.656Z,12.57
2022-08-26T08:53:17.587Z,12.38
2022-08-26T08:56:08.054Z,13.32
2022-08-26T08:58:50.048Z,13.35
2022-08-26T09:01:42.222Z,13.35
2022-08-26T09:04:27.718Z,12.73
2022-08-26T09:09:38.612Z,13.48
2022-08-26T09:12:12.825Z,13.07
2022-08-26T09:14:40.763Z,14.02
2022-08-26T09:17:39.048Z,13.30
2022-08-26T09:20:14.273Z,13.40
2022-08-26T09:22:44.201Z,13.60
2022-08-26T09:25:14.540Z,13.27
2022-08-26T09:27:46.322Z,13.73
2022-08-26T09:30:30.746Z,13.43
2022-08-26T09:33:11.087Z,14.40
2022-08-26T09:35:41.229Z,13.52
2022-08-26T09:38:26.582Z,13.90
2022-08-26T09:41:05.866Z,13.50
2022-08-26T09:43:34.597Z,13.55
2022-08-26T09:46:18.530Z,13.07
2022-08-26T09:48:45.867Z,13.25
2022-08-26T09:51:23.294Z,12.55
2022-08-26T09:53:57.006Z,12.23
2022-08-26T09:56:26.004Z,11.77
2022-08-26T09:58:56.810Z,11.37
2022-08-26T10:01:24.039Z,11.73
2022-08-26T10:03:51.986Z,11.68
2022-08-26T10:06:20.932Z,12.05
2022-08-26T10:08:59.998Z,13.10
2022-08-26T10:11:48.974Z,13.48
2022-08-26T10:14:31.874Z,13.45
2022-08-26T10:17:06.862Z,12.68
2022-08-26T10:19:58.775Z,13.40
2022-08-26T10:22:45.759Z,13.75
2022-08-26T10:25:17.535Z,12.80
2022-08-26T10:30:27.720Z,13.25
2022-08-26T10:33:07.418Z,13.23
2022-08-26T10:35:40.268Z,12.30
2022-08-26T10:38:15.930Z,13.23
2022-08-26T10:41:24.345Z,11.90
2022-08-26T10:44:03.314Z,11.80
2022-08-26T10:46:54.522Z,11.65
2022-08-26T10:49:21.809Z,11.35
2022-08-26T10:52:12.273Z,12.10
2022-08-26T10:54:55.362Z,11.27
2022-08-26T10:57:50.541Z,12.15
2022-08-26T11:00:43.906Z,12.18
2022-08-26T11:03:42.586Z,11.75
2022-08-26T11:06:18.641Z,12.10
2022-08-26T11:08:57.308Z,11.15
2022-08-26T11:11:42.533Z,11.50
2022-08-26T11:14:29.048Z,11.68
2022-08-26T11:16:59.828Z,10.70
2022-08-26T11:19:59.006Z,10.88
2022-08-26T11:22:47.592Z,11.38
2022-08-26T11:25:20.806Z,11.27
2022-08-26T11:27:54.523Z,10.73
2022-08-26T11:30:24.087Z,11.75
2022-08-26T11:32:57.373Z,11.07
2022-08-26T11:35:24.696Z,11.05
2022-08-26T11:37:58.421Z,10.82
2022-08-26T11:40:29.207Z,11.20
2022-08-26T11:42:59.777Z,11.43
2022-08-26T11:45:39.755Z,10.77
2022-08-26T11:48:16.779Z,11.05
2022-08-26T11:51:05.926Z,11.00
2022-08-26T11:53:37.308Z,10.38
2022-08-26T11:56:10.553Z,11.60
2022-08-26T11:58:44.438Z,11.23
2022-08-26T12:01:21.550Z,10.95
2022-08-26T12:03:52.430Z,11.88
2022-08-26T12:06:30.890Z,11.27
2022-08-26T12:09:05.526Z,10.70
2022-08-26T12:11:35.833Z,10.20
2022-08-26T12:14:07.561Z,10.63
2022-08-26T12:16:40.271Z,10.90
2022-08-26T12:19:34.255Z,10.05
2022-08-26T12:22:25.556Z,11.32
2022-08-26T12:24:55.551Z,10.07
2022-08-26T12:27:31.907Z,10.20
2022-08-26T12:30:13.872Z,9.30
2022-08-26T12:32:57.593Z,9.43
2022-08-26T12:35:28.967Z,9.07
2022-08-26T12:37:57.838Z,9.20
2022-08-26T12:40:30.936Z,8.85
2022-08-26T12:43:01.978Z,9.75
2022-08-26T12:45:37.121Z,9.98
2022-08-26T12:48:13.726Z,9.80
2022-08-26T12:50:48.055Z,9.35
2022-08-26T12:53:24.057Z,9.60
2022-08-26T12:56:00.478Z,8.70
2022-08-26T12:58:30.148Z,9.70
2022-08-26T13:01:04.616Z,9.65
2022-08-26T13:03:34.823Z,10.50
2022-08-26T13:06:17.222Z,8.77
2022-08-26T13:08:51.542Z,9.52
2022-08-26T13:11:21.093Z,10.25
2022-08-26T13:13:53.653Z,10.02
2022-08-26T13:16:23.267Z,9.80
2022-08-26T13:18:53.476Z,9.30
2022-08-26T13:21:24.182Z,9.65
2022-08-26T13:23:52.339Z,9.68
2022-08-26T13:26:20.298Z,9.98
2022-08-26T13:28:53.281Z,9.27
2022-08-26T13:31:31.304Z,9.23
2022-08-26T13:33:58.859Z,9.27
2022-08-26T13:36:27.045Z,9.32
2022-08-26T13:38:54.274Z,9.40
2022-08-26T13:41:29.115Z,9.18
2022-08-26T13:43:58.894Z,10.35
2022-08-26T13:46:28.523Z,10.77
2022-08-26T13:48:57.437Z,10.25
2022-08-26T13:51:27.130Z,10.27
2022-08-26T13:53:55.074Z,9.07
2022-08-26T13:56:23.064Z,8.45
2022-08-26T13:58:50.304Z,8.23
2022-08-26T14:01:17.662Z,7.88
2022-08-26T14:03:46.221Z,8.90
2022-08-26T14:06:13.973Z,8.52
2022-08-26T14:08:42.267Z,8.20
2022-08-26T14:11:10.028Z,8.07
2022-08-26T14:13:37.298Z,8.73
2022-08-26T14:16:13.382Z,8.90
2022-08-26T14:18:44.327Z,9.35
2022-08-26T14:21:14.269Z,9.25
2022-08-26T14:23:41.750Z,10.45
2022-08-26T14:26:14.329Z,10.38
2022-08-26T14:28:56.584Z,9.82
2022-08-26T14:31:24.301Z,8.98
2022-08-26T14:33:51.659Z,8.52
2022-08-26T14:36:34.119Z,8.80
2022-08-26T14:39:11.058Z,8.45
2022-08-26T14:41:55.180Z,8.30
2022-08-26T14:44:27.121Z,8.10
2022-08-26T14:49:23.610Z,7.97
2022-08-26T14:51:50.925Z,8.55
2022-08-26T14:54:19.466Z,8.55
2022-08-26T14:56:56.024Z,9.23
2022-08-26T14:59:33.086Z,8.63
2022-08-26T15:02:01.015Z,8.43
2022-08-26T15:04:28.995Z,9.25
2022-08-26T15:06:59.050Z,7.82
2022-08-26T15:09:28.080Z,8.20
2022-08-26T15:11:55.621Z,8.52
2022-08-26T15:14:23.973Z,7.45
2022-08-26T15:16:54.048Z,9.18
2022-08-26T15:19:22.710Z,9.02
2022-08-26T15:21:51.075Z,8.05
2022-08-26T15:24:21.183Z,8.55
2022-08-26T15:26:49.605Z,9.32
2022-08-26T15:29:17.436Z,9.15
2022-08-26T15:31:44.736Z,9.60
2022-08-26T15:34:16.434Z,8.10
2022-08-26T15:36:46.452Z,8.55
2022-08-26T15:39:15.756Z,8.20
2022-08-26T15:41:43.452Z,8.90
2022-08-26T15:44:11.690Z,10.80
2022-08-26T15:46:39.922Z,10.35
2022-08-26T15:49:07.605Z,10.38
2022-08-26T15:51:45.533Z,10.48
2022-08-26T15:54:14.509Z,10.23
2022-08-26T15:56:43.440Z,10.60
2022-08-26T15:59:11.851Z,10.00
2022-08-26T16:01:40.047Z,9.45
2022-08-26T16:04:07.676Z,11.13
2022-08-26T16:06:37.417Z,10.20
2022-08-26T16:09:06.380Z,10.25
2022-08-26T16:11:36.059Z,11.80
2022-08-26T16:14:04.777Z,10.80
2022-08-26T16:16:32.496Z,9.85
2022-08-26T16:19:02.270Z,9.52
2022-08-26T16:21:32.923Z,10.45
2022-08-26T16:24:00.192Z,10.07
2022-08-26T16:26:32.506Z,11.43
2022-08-26T16:29:02.084Z,11.25
2022-08-26T16:31:29.525Z,11.15
2022-08-26T16:33:56.879Z,11.27
2022-08-26T16:36:24.393Z,11.32
2022-08-26T16:38:55.740Z,12.10
2022-08-26T16:41:25.123Z,11.73
2022-08-26T16:43:53.122Z,11.43
2022-08-26T16:46:22.305Z,10.35
2022-08-26T16:48:50.116Z,10.25
2022-08-26T16:51:19.649Z,11.23
2022-08-26T16:53:47.591Z,10.82
2022-08-26T16:56:16.701Z,11.23
2022-08-26T16:58:44.317Z,11.07
2022-08-26T17:01:11.600Z,11.50
2022-08-26T17:03:38.942Z,11.25
2022-08-26T17:06:06.486Z,10.73
2022-08-26T17:08:33.855Z,10.00
2022-08-26T17:11:01.535Z,11.00
2022-08-26T17:13:35.904Z,10.60
2022-08-26T17:16:06.084Z,10.57
2022-08-26T17:18:34.226Z,10.65
2022-08-26T17:21:04.397Z,10.48
2022-08-26T17:23:31.833Z,9.98
2022-08-26T17:25:59.383Z,10.00
2022-08-26T17:28:26.790Z,11.27
2022-08-26T17:30:57.335Z,9.35
2022-08-26T17:33:25.407Z,9.77
2022-08-26T17:35:53.351Z,9.52
2022-08-26T17:38:21.353Z,10.40
2022-08-26T17:40:52.084Z,10.95
2022-08-26T17:43:19.784Z,11.93
2022-08-26T17:45:47.189Z,11.93
2022-08-26T17:48:14.506Z,14.93
2022-08-26T17:50:42.842Z,12.80
2022-08-26T17:53:12.708Z,12.77
2022-08-26T17:55:47.099Z,14.00
2022-08-26T17:58:17.784Z,14.27
2022-08-26T18:00:48.006Z,14.65
2022-08-26T18:03:16.384Z,14.15
2022-08-26T18:05:48.226Z,14.32
2022-08-26T18:08:15.739Z,14.25
2022-08-26T18:10:44.090Z,15.93
2022-08-26T18:13:11.989Z,16.20
2022-08-26T18:15:40.340Z,15.80
2022-08-26T18:18:07.921Z,17.27
2022-08-26T18:20:37.287Z,16.85
2022-08-26T18:23:05.080Z,16.23
2022-08-26T18:25:32.313Z,17.05
2022-08-26T18:27:59.941Z,15.30
2022-08-26T18:30:27.278Z,16.95
2022-08-26T18:32:54.512Z,17.65
2022-08-26T18:35:21.735Z,18.05
2022-08-26T18:37:49.009Z,17.17
2022-08-26T18:40:17.606Z,16.92
2022-08-26T18:42:45.174Z,15.73
2022-08-26T18:45:17.732Z,15.55
2022-08-26T18:47:45.043Z,15.38
2022-08-26T18:50:12.604Z,17.70
2022-08-26T18:52:40.378Z,17.13
2022-08-26T18:55:08.434Z,17.10
2022-08-26T18:57:35.719Z,15.20
2022-08-26T19:00:06.018Z,15.27
2022-08-26T19:02:34.485Z,15.43
2022-08-26T19:05:02.013Z,16.17
2022-08-26T19:07:29.345Z,16.10
2022-08-26T19:09:56.586Z,16.67
2022-08-26T19:12:24.023Z,16.27
2022-08-26T19:14:54.212Z,14.80
2022-08-26T19:17:22.661Z,15.40
2022-08-26T19:19:50.022Z,15.68
2022-08-26T19:22:17.245Z,16.50
2022-08-26T19:24:44.517Z,16.55
2022-08-26T19:27:14.916Z,17.52
2022-08-26T19:29:42.383Z,21.17
2022-08-26T19:32:09.753Z,17.33
2022-08-26T19:34:37.146Z,15.40
2022-08-26T19:37:04.667Z,15.65
2022-08-26T19:39:31.953Z,15.05
2022-08-26T19:42:00.441Z,14.38
2022-08-26T19:44:46.471Z,13.85
2022-08-26T19:47:14.164Z,14.20
2022-08-26T19:49:41.421Z,13.65
2022-08-26T19:52:09.086Z,14.48
2022-08-26T19:54:37.141Z,14.75
2022-08-26T19:57:05.410Z,14.73
2022-08-26T19:59:33.252Z,13.15
2022-08-26T20:02:01.610Z,12.88
2022-08-26T20:04:30.997Z,14.23
2022-08-26T20:07:00.710Z,13.43
2022-08-26T20:09:29.849Z,12.63
2022-08-26T20:11:57.222Z,14.38
2022-08-26T20:14:26.256Z,13.35
2022-08-26T20:16:53.984Z,16.02
2022-08-26T20:19:40.367Z,15.73
2022-08-26T20:22:08.217Z,15.98
2022-08-26T20:24:36.008Z,17.90
2022-08-26T20:27:07.693Z,17.33
2022-08-26T20:29:35.747Z,16.95
2022-08-26T20:32:06.100Z,19.80
2022-08-26T20:34:34.276Z,23.33
2022-08-26T20:37:01.790Z,26.55
2022-08-26T20:39:29.916Z,24.88
2022-08-26T20:41:58.220Z,20.95
2022-08-26T20:44:26.462Z,18.45
2022-08-26T20:46:53.761Z,16.85
2022-08-26T20:49:21.197Z,16.20
2022-08-26T20:51:52.543Z,15.07
2022-08-26T20:54:25.108Z,14.05
2022-08-26T20:56:56.716Z,13.27
2022-08-26T20:59:24.626Z,12.85
2022-08-26T21:01:51.995Z,13.75
2022-08-26T21:04:22.114Z,13.18
2022-08-26T21:06:52.939Z,11.65
2022-08-26T21:09:23.318Z,12.18
2022-08-26T21:11:51.370Z,12.40
2022-08-26T21:14:20.615Z,12.40
2022-08-26T21:16:48.019Z,11.27
2022-08-26T21:19:18.232Z,11.32
2022-08-26T21:21:47.603Z,10.93
2022-08-26T21:24:15.561Z,11.85
2022-08-26T21:26:43.100Z,12.43
2022-08-26T21:29:10.395Z,11.30
2022-08-26T21:31:43.573Z,11.30
2022-08-26T21:34:13.464Z,10.70
2022-08-26T21:36:40.749Z,11.15
2022-08-26T21:39:11.716Z,10.63
2022-08-26T21:41:40.661Z,9.75
2022-08-26T21:44:08.906Z,10.32
2022-08-26T21:46:37.455Z,8.48
2022-08-26T21:49:07.625Z,8.70
2022-08-26T21:51:37.847Z,8.57
2022-08-26T21:54:10.773Z,7.65
2022-08-26T21:56:42.216Z,8.23
2022-08-26T21:59:09.888Z,7.45
2022-08-26T22:01:38.100Z,7.40
2022-08-26T22:04:07.658Z,7.50
2022-08-26T22:06:39.867Z,8.23
2022-08-26T22:09:07.117Z,7.43
2022-08-26T22:11:34.435Z,7.38
2022-08-26T22:14:01.809Z,7.55
2022-08-26T22:16:29.106Z,7.35
2022-08-26T22:18:56.649Z,7.70
2022-08-26T22:21:27.040Z,7.15
2022-08-26T22:23:57.933Z,6.88
2022-08-26T22:26:29.398Z,7.22
2022-08-26T22:28:58.963Z,7.07
2022-08-26T22:31:37.875Z,7.13
2022-08-26T22:34:08.820Z,6.50
2022-08-26T22:36:43.050Z,7.00
2022-08-26T22:39:17.737Z,7.82
2022-08-26T22:41:48.852Z,6.93
2022-08-26T22:44:17.558Z,7.43
2022-08-26T22:46:45.893Z,7.15
2022-08-26T22:49:16.584Z,7.65
2022-08-26T22:51:47.452Z,7.47
2022-08-26T22:54:15.823Z,7.90
2022-08-26T22:56:44.836Z,8.13
2022-08-26T22:59:13.184Z,10.32
2022-08-26T23:01:43.075Z,11.10
2022-08-26T23:04:11.185Z,10.93
2022-08-26T23:06:41.341Z,10.10
2022-08-26T23:09:09.180Z,12.80
2022-08-26T23:11:39.920Z,11.73
2022-08-26T23:14:09.761Z,10.88
2022-08-26T23:16:40.116Z,9.45
2022-08-26T23:19:09.811Z,10.85
2022-08-26T23:21:37.879Z,11.23
2022-08-26T23:24:06.298Z,11.82
2022-08-26T23:26:34.924Z,11.02
2022-08-26T23:29:05.092Z,12.70
2022-08-26T23:31:32.814Z,13.27
2022-08-26T23:34:18.762Z,12.15
2022-08-26T23:36:46.982Z,11.63
2022-08-26T23:39:14.854Z,12.45
2022-08-26T23:41:42.789Z,12.13
2022-08-26T23:44:10.137Z,11.27
2022-08-26T23:46:37.402Z,11.07
2022-08-26T23:49:05.079Z,11.60
2022-08-26T23:51:50.943Z,11.60
2022-08-26T23:54:19.606Z,10.93
2022-08-26T23:56:46.915Z,12.75
2022-08-26T23:59:14.337Z,13.10
